Terminal Aerodrome Forecast
Issued by NWS Paducah, KY

Home | Current Version | Previous Version | Graphics & Text | Print | Product List | Glossary On
Versions: 1 2 3 4 5 6 7 8 9 10 11 12 13 14 15 16
067
FTUS43 KPAH 181457 AAA
TAFPAH
TAF AMD
KPAH 181457Z 1815/1912 22006KT P6SM OVC005
      TEMPO 1815/1818 5SM -DZ BR
     FM181900 23008KT P6SM OVC025
     FM182200 21004KT P6SM SCT030=

USA.gov is the U.S. government's official web portal to all federal, state and local government web resources and services.